Domov               UVHVVR             MKGP            O straneh              
ZDRAVSTVENO VARSTVO RASTLIN
  MREŽA AGROMET. POSTAJ
 ► PROGNOSTIČNA OBVESTILA
AGROMETEOROLOŠKI PODATKI -
ARSO
OBVLADOVANJE TVEGANJ ZARADI
NEUGODNIH VREMENSKIH RAZMER
  ► NARAVNE NESREČE
  ► SUŠA/MOČA
  ► NAMAKANJE
  ► ŽLED (gozdarstvo)
KARTOGRAFSKI PRIKAZI
SPLETNE POVEZAVE
PROJEKTI IN PUBLIKACIJE

AGROMETEOROLOŠKA MREŽA: VREMENSKE POSTAJE IN FENOLOŠKA OPAZOVANJA

Pregled podatkov za lokacijo Vitomarci, meteorološka postaja 25168

Pregled senzorjev na lokaciji

ID Ime Zadnja
vrednost
Datum
zadnje
spremembe
Tip
senzorja
1922 Omočenost lista (U) 0 U 19.7.2018 22:00 A730WET
1921 Padavine (mm) 0 mm 19.7.2018 22:00 Generic 0.2 mm
1923 Relativna vlaga 2 m (% RH) 60,29 % RH 19.7.2018 22:00 Generic 0 - 100 %
1924 Temperatura 2 m (°C) 20,32 °C 19.7.2018 22:00 Generic -40 - +60 °C

Pregled podatkov zadnjih 24 ur

Zap.
št.
Datum in čas Vitomarci
Omočenost
lista
Padavine Relativna
vlaga
2
m
Temperatura
2
m
1 19.7.2018 23:30
2 19.7.2018 23:00
3 19.7.2018 22:30
4 19.7.2018 22:00
5 19.7.2018 21:30
6 19.7.2018 21:00 0 0 60,3 20,3
7 19.7.2018 20:30 0 0 63,2 20,4
8 19.7.2018 20:00 0 0 67 21
9 19.7.2018 19:30 0 0 65,4 22,3
10 19.7.2018 19:00 0 0 61 24,1
11 19.7.2018 18:30 0 0 51,9 26,2
12 19.7.2018 18:00 0 0 42,2 27,7
13 19.7.2018 17:30 0 0 40,7 28,2
14 19.7.2018 17:00 0 0 38,5 28,2
15 19.7.2018 16:30 0 0 37,1 28,9
16 19.7.2018 16:00 0 0 34,7 29,3
17 19.7.2018 15:30 0 0 34,5 29,3
18 19.7.2018 15:00 0 0 33,7 29,4
19 19.7.2018 14:30 0 0 35,8 29,3
20 19.7.2018 14:00 0 0 34,1 29
21 19.7.2018 13:30 0 0 32,6 28,9
22 19.7.2018 13:00 0 0 36,6 28,5
23 19.7.2018 12:30 0 0 33,8 28,6
24 19.7.2018 12:00 0 0 42,2 27,7
25 19.7.2018 11:30 0 0 40,6 27,2
26 19.7.2018 11:00 0 0 40,4 27,3
27 19.7.2018 10:30 0 0 40,8 27
28 19.7.2018 10:00 0 0 47,5 26,7
29 19.7.2018 09:30 0 0 44,9 26,2
30 19.7.2018 09:00 0 0 49,6 25,7
31 19.7.2018 08:30 0 0 51,6 24,8
32 19.7.2018 08:00 0 0 54,9 22,4
33 19.7.2018 07:30 0 0 61,3 21
34 19.7.2018 07:00 0 0 64 19,9
35 19.7.2018 06:30 0 0 69,4 19,2
36 19.7.2018 06:00 1 0 74,7 17,7
37 19.7.2018 05:30 1 0 99,9 15,5
38 19.7.2018 05:00 1 0 99,9 15,2
39 19.7.2018 04:30 1 0 99,9 15,5
40 19.7.2018 04:00 1 0 99,6 15,9
41 19.7.2018 03:30 0 0 85,6 16,4
42 19.7.2018 03:00 0 0 82,4 16,2
43 19.7.2018 02:30 0 0 85,9 16,7
44 19.7.2018 02:00 0 0 77,6 17
45 19.7.2018 01:30 0 0 81,7 17,2
46 19.7.2018 01:00 0 0 81,7 17,5
47 19.7.2018 00:30 0 0 80,6 17,4
48 19.7.2018 00:00 0 0 77,7 17,9
© 2011 Ministrstvo za kmetijstvo, gozdarstvo in prehrano. Vse pravice pridržane.